createdAt,value
2017-06-09T00:00:02.638Z,18.2
2017-06-09T00:05:03.195Z,18.1
2017-06-09T00:10:02.634Z,18.1
2017-06-09T00:15:03.056Z,18.1
2017-06-09T00:20:02.400Z,17.8
2017-06-09T00:25:02.823Z,17.8
2017-06-09T00:30:03.118Z,17.7
2017-06-09T00:35:02.491Z,17.7
2017-06-09T00:40:02.717Z,17.7
2017-06-09T00:45:03.049Z,17.8
2017-06-09T00:50:02.559Z,17.7
2017-06-09T00:55:02.851Z,17.7
2017-06-09T01:00:03.269Z,17.8
2017-06-09T01:05:02.553Z,17.7
2017-06-09T01:10:02.995Z,17.8
2017-06-09T01:15:02.368Z,18.1
2017-06-09T01:20:02.778Z,17.8
2017-06-09T01:25:03.122Z,18.1
2017-06-09T01:30:02.517Z,18.1
2017-06-09T01:35:02.936Z,18.1
2017-06-09T01:40:02.335Z,18.1
2017-06-09T01:45:02.701Z,18.1
2017-06-09T01:50:03.007Z,18.1
2017-06-09T01:55:02.302Z,18.1
2017-06-09T02:00:02.665Z,18.2
2017-06-09T02:05:03.073Z,18.2
2017-06-09T02:10:02.467Z,18.2
2017-06-09T02:15:02.944Z,18.1
2017-06-09T02:20:03.265Z,18.1
2017-06-09T02:25:02.572Z,18.1
2017-06-09T02:30:02.983Z,18.2
2017-06-09T02:35:02.301Z,18.2
2017-06-09T02:40:02.719Z,18.2
2017-06-09T02:45:03.037Z,18.2
2017-06-09T02:50:02.470Z,18.1
2017-06-09T02:55:02.848Z,17.8
2017-06-09T03:00:03.191Z,17.8
2017-06-09T03:05:02.617Z,17.8
2017-06-09T03:10:02.998Z,17.7
2017-06-09T03:15:02.450Z,17.7
2017-06-09T03:20:02.800Z,17.7
2017-06-09T03:25:03.333Z,17.7
2017-06-09T03:30:02.676Z,17.7
2017-06-09T03:35:02.972Z,17.3
2017-06-09T03:40:02.481Z,17.3
2017-06-09T03:45:03.058Z,17.5
2017-06-09T03:50:02.387Z,17.5
2017-06-09T03:55:02.925Z,17.7
2017-06-09T04:00:03.143Z,17.5
2017-06-09T04:05:02.524Z,17.5
2017-06-09T04:10:03.210Z,17.7
2017-06-09T04:15:02.598Z,17.7
2017-06-09T04:20:03.127Z,17.7
2017-06-09T04:25:02.535Z,17.7
2017-06-09T04:30:03.090Z,17.7
2017-06-09T04:35:02.555Z,17.7
2017-06-09T04:40:03.062Z,17.7
2017-06-09T04:45:02.449Z,17.7
2017-06-09T04:50:02.803Z,17.7
2017-06-09T04:55:03.278Z,17.8
2017-06-09T05:00:02.538Z,17.8
2017-06-09T05:05:02.937Z,17.7
2017-06-09T05:10:02.430Z,17.8
2017-06-09T05:15:02.919Z,18.2
2017-06-09T05:20:03.336Z,18.1
2017-06-09T05:25:02.639Z,18.1
2017-06-09T05:30:03.084Z,18.2
2017-06-09T05:35:02.384Z,18.5
2017-06-09T05:40:02.899Z,18.5
2017-06-09T05:45:02.441Z,18.5
2017-06-09T05:50:02.866Z,18.2
2017-06-09T05:55:03.309Z,18.5
2017-06-09T06:00:02.665Z,18.6
2017-06-09T06:05:03.086Z,18.6
2017-06-09T06:10:02.437Z,18.5
2017-06-09T06:15:02.952Z,18.2
2017-06-09T06:20:02.545Z,18.2
2017-06-09T06:25:02.988Z,16.3
2017-06-09T06:30:02.436Z,15.8
2017-06-09T06:35:02.852Z,15.5
2017-06-09T06:40:02.466Z,15.1
2017-06-09T06:45:02.894Z,15.1
2017-06-09T06:50:02.328Z,15.3
2017-06-09T06:55:02.683Z,15.3
2017-06-09T07:00:03.163Z,15.6
2017-06-09T07:05:02.496Z,15.8
2017-06-09T07:10:03.142Z,15.8
2017-06-09T07:15:02.504Z,15.8
2017-06-09T07:20:02.981Z,15.6
2017-06-09T07:25:02.467Z,15.8
2017-06-09T07:30:02.817Z,16.2
2017-06-09T07:35:03.255Z,15.8
2017-06-09T07:40:02.692Z,15.6
2017-06-09T07:45:03.036Z,15.6
2017-06-09T07:50:02.498Z,15.5
2017-06-09T07:55:02.794Z,15.5
2017-06-09T08:00:03.217Z,15.3
2017-06-09T08:05:02.521Z,15.1
2017-06-09T08:10:03.081Z,15.3
2017-06-09T08:15:02.438Z,15.3
2017-06-09T08:20:02.887Z,15.1
2017-06-09T08:25:03.264Z,15.1
2017-06-09T08:30:02.598Z,15.1
2017-06-09T08:35:02.912Z,14.8
2017-06-09T08:40:02.440Z,15.0
2017-06-09T08:45:02.711Z,14.8
2017-06-09T08:50:03.022Z,14.6
2017-06-09T08:55:02.345Z,14.5
2017-06-09T09:00:02.708Z,14.6
2017-06-09T09:05:03.107Z,14.8
2017-06-09T09:10:02.571Z,14.8
2017-06-09T09:15:03.102Z,14.6
2017-06-09T09:20:02.551Z,14.8
2017-06-09T09:25:03.048Z,14.8
2017-06-09T09:30:02.490Z,14.8
2017-06-09T09:35:02.853Z,15.1
2017-06-09T09:40:02.421Z,15.0
2017-06-09T09:45:02.841Z,14.8
2017-06-09T09:50:03.168Z,15.0
2017-06-09T09:55:02.568Z,15.0
2017-06-09T10:00:02.902Z,15.0
2017-06-09T10:05:02.483Z,14.8
2017-06-09T10:10:03.159Z,15.0
2017-06-09T10:15:02.834Z,14.6
2017-06-09T10:20:03.240Z,14.8
2017-06-09T10:25:02.553Z,14.8
2017-06-09T10:30:02.933Z,14.8
2017-06-09T10:35:02.989Z,14.8
2017-06-09T10:40:02.861Z,14.8
2017-06-09T10:45:02.606Z,15.0
2017-06-09T10:50:03.019Z,15.0
2017-06-09T10:55:02.755Z,14.8
2017-06-09T11:00:02.476Z,15.1
2017-06-09T11:05:03.281Z,15.1
2017-06-09T11:10:03.218Z,15.1
2017-06-09T11:15:02.754Z,15.1
2017-06-09T11:20:02.833Z,15.1
2017-06-09T11:25:02.850Z,15.0
2017-06-09T11:30:02.421Z,15.3
2017-06-09T11:35:03.041Z,15.8
2017-06-09T11:40:02.688Z,16.2
2017-06-09T11:45:03.158Z,17.1
2017-06-09T11:50:02.785Z,17.1
2017-06-09T11:55:02.559Z,17.5
2017-06-09T12:00:02.617Z,17.7
2017-06-09T12:05:02.394Z,17.8
2017-06-09T12:10:02.911Z,17.5
2017-06-09T12:15:03.211Z,18.6
2017-06-09T12:20:02.731Z,19.2
2017-06-09T12:25:03.097Z,20.2
2017-06-09T12:30:03.337Z,20.2
2017-06-09T12:35:02.906Z,20.6
2017-06-09T12:40:02.746Z,20.7
2017-06-09T12:45:03.016Z,21.6
2017-06-09T12:50:02.466Z,20.6
2017-06-09T12:55:02.654Z,20.1
2017-06-09T13:00:02.388Z,19.7
2017-06-09T13:05:03.397Z,19.3
2017-06-09T13:10:02.410Z,20.2
2017-06-09T13:15:03.152Z,22.1
2017-06-09T13:20:02.317Z,22.2
2017-06-09T13:25:03.005Z,19.7
2017-06-09T13:30:03.042Z,22.0
2017-06-09T13:35:03.183Z,22.3
2017-06-09T13:40:03.273Z,22.7
2017-06-09T13:45:02.478Z,22.7
2017-06-09T13:50:02.838Z,23.0
2017-06-09T13:55:02.511Z,21.8
2017-06-09T14:00:02.624Z,22.7
2017-06-09T14:05:03.236Z,23.1
2017-06-09T14:10:02.544Z,23.2
2017-06-09T14:15:02.627Z,23.1
2017-06-09T14:20:02.902Z,22.1
2017-06-09T14:25:03.120Z,23.3
2017-06-09T14:30:03.232Z,23.2
2017-06-09T14:35:02.798Z,23.2
2017-06-09T14:40:02.301Z,22.6
2017-06-09T14:45:02.569Z,23.7
2017-06-09T14:50:02.937Z,23.2
2017-06-09T14:55:03.089Z,23.2
2017-06-09T15:00:02.477Z,22.7
2017-06-09T15:05:02.346Z,22.7
2017-06-09T15:10:03.054Z,22.5
2017-06-09T15:15:03.153Z,23.6
2017-06-09T15:20:02.448Z,23.2
2017-06-09T15:25:03.238Z,23.1
2017-06-09T15:30:02.343Z,22.7
2017-06-09T15:35:02.694Z,21.5
2017-06-09T15:40:02.787Z,22.0
2017-06-09T15:45:02.813Z,23.0
2017-06-09T15:50:03.136Z,22.5
2017-06-09T15:55:02.837Z,22.1
2017-06-09T16:00:02.945Z,22.2
2017-06-09T16:05:02.374Z,22.1
2017-06-09T16:10:02.797Z,22.0
2017-06-09T16:15:03.031Z,22.0
2017-06-09T16:20:02.263Z,21.3
2017-06-09T16:25:02.509Z,22.2
2017-06-09T16:30:02.431Z,22.5
2017-06-09T16:35:02.525Z,21.5
2017-06-09T16:40:02.590Z,22.0
2017-06-09T16:45:02.969Z,21.7
2017-06-09T16:50:02.741Z,22.0
2017-06-09T16:55:02.533Z,21.7
2017-06-09T17:00:03.019Z,21.6
2017-06-09T17:05:02.497Z,20.6
2017-06-09T17:10:03.169Z,21.3
2017-06-09T17:15:02.552Z,21.8
2017-06-09T17:20:03.149Z,22.0
2017-06-09T17:25:02.555Z,21.2
2017-06-09T17:30:03.165Z,21.2
2017-06-09T17:35:02.774Z,21.2
2017-06-09T17:40:02.604Z,21.2
2017-06-09T17:45:02.385Z,21.3
2017-06-09T17:50:03.045Z,21.7
2017-06-09T17:55:02.639Z,21.0
2017-06-09T18:00:02.414Z,21.2
2017-06-09T18:05:02.821Z,20.8
2017-06-09T18:10:02.661Z,20.7
2017-06-09T18:15:03.136Z,21.0
2017-06-09T18:20:02.352Z,20.7
2017-06-09T18:25:02.531Z,20.2
2017-06-09T18:30:02.695Z,19.7
2017-06-09T18:35:02.726Z,19.7
2017-06-09T18:40:02.941Z,20.1
2017-06-09T18:45:02.294Z,20.1
2017-06-09T18:50:02.343Z,20.2
2017-06-09T18:55:03.060Z,19.7
2017-06-09T19:00:02.824Z,18.5
2017-06-09T19:05:02.852Z,18.1
2017-06-09T19:10:03.092Z,17.8
2017-06-09T19:15:02.587Z,17.7
2017-06-09T19:20:02.697Z,17.5
2017-06-09T19:25:03.158Z,17.2
2017-06-09T19:30:02.682Z,17.1
2017-06-09T19:35:03.169Z,17.1
2017-06-09T19:40:03.235Z,17.0
2017-06-09T19:45:02.501Z,17.1
2017-06-09T19:50:02.947Z,17.0
2017-06-09T19:55:02.443Z,17.0
2017-06-09T20:00:02.586Z,16.7
2017-06-09T20:05:02.509Z,16.7
2017-06-09T20:10:02.857Z,16.7
2017-06-09T20:15:03.265Z,16.3
2017-06-09T20:20:02.866Z,16.6
2017-06-09T20:25:02.433Z,16.2
2017-06-09T20:30:02.586Z,16.0
2017-06-09T20:35:02.455Z,16.0
2017-06-09T20:40:02.748Z,15.8
2017-06-09T20:45:02.790Z,15.8
2017-06-09T20:50:02.890Z,15.5
2017-06-09T20:55:02.439Z,15.3
2017-06-09T21:00:02.927Z,15.5
2017-06-09T21:05:02.899Z,15.5
2017-06-09T21:10:02.853Z,15.3
2017-06-09T21:15:03.141Z,15.0
2017-06-09T21:20:02.777Z,15.0
2017-06-09T21:25:02.289Z,15.0
2017-06-09T21:30:02.678Z,14.8
2017-06-09T21:35:03.085Z,14.6
2017-06-09T21:40:02.563Z,14.5
2017-06-09T21:45:02.886Z,14.6
2017-06-09T21:50:03.180Z,14.5
2017-06-09T21:55:02.542Z,14.6
2017-06-09T22:00:05.021Z,14.3
2017-06-09T22:05:02.541Z,14.3
2017-06-09T22:10:03.005Z,14.5
2017-06-09T22:15:02.270Z,14.3
2017-06-09T22:20:02.632Z,14.0
2017-06-09T22:25:02.931Z,14.0
2017-06-09T22:30:03.231Z,13.8
2017-06-09T22:35:02.569Z,13.6
2017-06-09T22:40:03.130Z,14.0
2017-06-09T22:45:02.549Z,14.0
2017-06-09T22:50:02.946Z,14.0
2017-06-09T22:55:03.239Z,14.0
2017-06-09T23:00:02.648Z,13.8
2017-06-09T23:05:02.323Z,13.6
2017-06-09T23:10:02.928Z,13.5
2017-06-09T23:15:02.287Z,13.5
2017-06-09T23:20:02.573Z,13.6
2017-06-09T23:25:03.029Z,13.6
2017-06-09T23:30:02.623Z,13.3
2017-06-09T23:35:02.979Z,13.3
2017-06-09T23:40:02.504Z,13.3
2017-06-09T23:45:02.908Z,13.3
2017-06-09T23:50:02.375Z,13.3
2017-06-09T23:55:02.754Z,13.1
